createdAt,value
2018-07-06T00:02:22.491Z,23.44
2018-07-06T00:05:13.676Z,23.38
2018-07-06T00:07:53.170Z,23.31
2018-07-06T00:10:32.837Z,23.24
2018-07-06T00:13:12.361Z,23.18
2018-07-06T00:15:57.300Z,23.12
2018-07-06T00:18:36.950Z,23.05
2018-07-06T00:21:16.713Z,23.04
2018-07-06T00:23:56.332Z,23.04
2018-07-06T00:26:47.529Z,22.94
2018-07-06T00:29:27.397Z,22.87
2018-07-06T00:32:06.937Z,22.85
2018-07-06T00:34:49.137Z,22.81
2018-07-06T00:37:28.649Z,22.78
2018-07-06T00:40:08.348Z,22.75
2018-07-06T00:42:47.927Z,22.65
2018-07-06T00:57:03.235Z,22.45
2018-07-06T00:59:42.681Z,22.38
2018-07-06T01:02:22.157Z,22.32
2018-07-06T01:05:05.741Z,22.24
2018-07-06T01:07:45.405Z,22.20
2018-07-06T01:10:24.849Z,22.21
2018-07-06T01:13:04.357Z,22.12
2018-07-06T01:15:43.970Z,22.03
2018-07-06T01:18:23.722Z,22.04
2018-07-06T01:21:03.182Z,22.03
2018-07-06T01:23:42.623Z,22.03
2018-07-06T01:26:26.057Z,21.96
2018-07-06T01:29:05.775Z,21.89
2018-07-06T01:31:45.262Z,21.89
2018-07-06T01:34:24.991Z,21.89
2018-07-06T01:37:04.677Z,21.84
2018-07-06T01:39:44.296Z,21.83
2018-07-06T01:42:24.304Z,21.78
2018-07-06T01:48:08.036Z,21.60
2018-07-06T01:50:47.793Z,21.59
2018-07-06T01:53:27.543Z,21.65
2018-07-06T02:04:47.581Z,21.74
2018-07-06T02:07:27.987Z,21.72
2018-07-06T02:10:07.825Z,21.65
2018-07-06T02:12:47.605Z,21.66
2018-07-06T02:15:27.411Z,21.70
2018-07-06T02:18:06.978Z,21.73
2018-07-06T02:20:46.576Z,21.77
2018-07-06T02:23:26.073Z,21.78
2018-07-06T02:26:05.629Z,21.78
2018-07-06T02:28:45.681Z,21.79
2018-07-06T02:31:25.349Z,21.76
2018-07-06T02:34:05.018Z,21.74
2018-07-06T02:36:44.613Z,21.75
2018-07-06T02:39:24.197Z,21.75
2018-07-06T02:42:03.869Z,21.72
2018-07-06T02:44:43.589Z,21.65
2018-07-06T02:47:23.383Z,21.54
2018-07-06T02:50:03.320Z,21.58
2018-07-06T02:52:43.948Z,21.53
2018-07-06T02:58:16.514Z,21.26
2018-07-06T03:00:56.140Z,21.20
2018-07-06T03:03:35.762Z,21.13
2018-07-06T03:06:15.359Z,21.06
2018-07-06T03:08:55.074Z,20.95
2018-07-06T03:11:35.123Z,20.74
2018-07-06T03:14:14.895Z,20.75
2018-07-06T03:16:54.687Z,20.62
2018-07-06T03:19:34.317Z,20.62
2018-07-06T03:22:14.019Z,20.57
2018-07-06T03:24:53.728Z,20.43
2018-07-06T03:27:33.711Z,20.47
2018-07-06T03:30:13.530Z,20.43
2018-07-06T03:32:53.112Z,20.36
2018-07-06T03:35:33.173Z,20.31
2018-07-06T03:38:12.933Z,20.37
2018-07-06T03:40:52.650Z,20.37
2018-07-06T03:43:32.354Z,20.41
2018-07-06T03:46:15.940Z,20.47
2018-07-06T03:48:55.481Z,20.38
2018-07-06T03:51:35.214Z,20.44
2018-07-06T03:54:14.960Z,20.56
2018-07-06T03:56:54.764Z,20.63
2018-07-06T03:59:34.555Z,20.61
2018-07-06T04:02:14.158Z,20.54
2018-07-06T04:04:53.741Z,20.38
2018-07-06T04:07:33.486Z,20.14
2018-07-06T04:10:13.184Z,20.11
2018-07-06T04:12:52.730Z,20.16
2018-07-06T04:15:32.165Z,20.24
2018-07-06T04:18:11.766Z,20.24
2018-07-06T04:20:52.472Z,20.33
2018-07-06T04:23:32.090Z,20.39
2018-07-06T04:26:17.040Z,20.29
2018-07-06T04:28:56.796Z,20.35
2018-07-06T04:31:36.444Z,20.45
2018-07-06T04:34:16.260Z,20.41
2018-07-06T04:36:56.006Z,20.41
2018-07-06T04:39:35.754Z,20.29
2018-07-06T04:42:15.399Z,20.21
2018-07-06T04:44:54.943Z,20.07
2018-07-06T04:47:34.557Z,20.02
2018-07-06T04:50:14.119Z,20.19
2018-07-06T04:52:53.834Z,20.07
2018-07-06T04:55:33.417Z,20.10
2018-07-06T04:58:13.157Z,20.13
2018-07-06T05:00:52.909Z,20.22
2018-07-06T05:03:32.672Z,20.38
2018-07-06T05:06:13.457Z,20.37
2018-07-06T05:08:53.163Z,20.35
2018-07-06T05:11:32.966Z,20.22
2018-07-06T05:14:12.640Z,20.13
2018-07-06T05:16:52.210Z,20.18
2018-07-06T05:19:31.919Z,20.16
2018-07-06T05:22:11.906Z,20.22
2018-07-06T05:24:51.646Z,20.05
2018-07-06T05:27:31.379Z,19.96
2018-07-06T05:30:11.077Z,19.94
2018-07-06T05:32:50.798Z,20.03
2018-07-06T05:35:35.643Z,20.02
2018-07-06T05:38:15.373Z,19.89
2018-07-06T05:40:55.017Z,19.80
2018-07-06T05:43:34.866Z,19.86
2018-07-06T05:46:14.591Z,19.89
2018-07-06T05:48:54.578Z,19.89
2018-07-06T05:51:34.293Z,19.88
2018-07-06T05:54:07.429Z,19.87
2018-07-06T05:56:40.795Z,19.86
2018-07-06T05:59:20.349Z,19.82
2018-07-06T06:01:59.943Z,19.82
2018-07-06T06:04:39.425Z,19.90
2018-07-06T06:07:19.132Z,19.91
2018-07-06T06:09:47.595Z,19.86
2018-07-06T06:12:16.395Z,19.85
2018-07-06T06:14:45.099Z,19.88
2018-07-06T06:17:13.687Z,19.89
2018-07-06T06:19:42.259Z,19.89
2018-07-06T06:22:10.877Z,19.88
2018-07-06T06:24:39.402Z,19.93
2018-07-06T06:27:08.011Z,19.92
2018-07-06T06:29:37.177Z,19.87
2018-07-06T06:32:06.441Z,19.85
2018-07-06T06:34:35.759Z,19.92
2018-07-06T06:37:04.348Z,19.88
2018-07-06T06:39:33.680Z,19.86
2018-07-06T06:42:02.447Z,19.94
2018-07-06T06:44:31.432Z,19.99
2018-07-06T06:47:01.112Z,20.01
2018-07-06T06:49:31.053Z,19.99
2018-07-06T06:52:00.369Z,20.00
2018-07-06T06:54:29.267Z,19.91
2018-07-06T06:57:02.884Z,19.91
2018-07-06T06:59:31.507Z,19.95
2018-07-06T07:02:00.496Z,19.95
2018-07-06T07:04:29.023Z,19.95
2018-07-06T07:07:06.967Z,19.91
2018-07-06T07:09:35.619Z,19.95
2018-07-06T07:12:04.199Z,20.00
2018-07-06T07:14:32.855Z,20.04
2018-07-06T07:17:01.327Z,20.06
2018-07-06T07:19:30.010Z,20.05
2018-07-06T07:21:58.805Z,20.01
2018-07-06T07:24:27.435Z,20.00
2018-07-06T07:26:56.541Z,20.00
2018-07-06T07:29:25.099Z,20.02
2018-07-06T07:31:53.935Z,20.02
2018-07-06T07:34:23.186Z,20.07
2018-07-06T07:36:51.874Z,20.14
2018-07-06T07:39:20.407Z,20.21
2018-07-06T07:41:49.013Z,20.27
2018-07-06T07:44:17.560Z,20.29
2018-07-06T07:46:46.183Z,20.30
2018-07-06T07:49:14.703Z,20.31
2018-07-06T07:51:56.457Z,20.34
2018-07-06T07:54:34.226Z,20.34
2018-07-06T07:57:03.301Z,20.38
2018-07-06T07:59:33.549Z,20.48
2018-07-06T08:02:02.811Z,20.47
2018-07-06T08:04:31.321Z,20.49
2018-07-06T08:06:59.899Z,20.48
2018-07-06T08:09:28.690Z,20.46
2018-07-06T08:11:58.699Z,20.50
2018-07-06T08:14:27.267Z,20.57
2018-07-06T08:16:55.884Z,20.56
2018-07-06T08:19:24.633Z,20.57
2018-07-06T08:21:53.320Z,20.52
2018-07-06T08:24:22.091Z,20.56
2018-07-06T08:26:50.673Z,20.55
2018-07-06T08:29:19.092Z,20.58
2018-07-06T08:31:47.736Z,20.58
2018-07-06T08:34:27.307Z,20.63
2018-07-06T08:37:51.257Z,20.68
2018-07-06T08:40:20.487Z,20.72
2018-07-06T08:42:51.123Z,20.73
2018-07-06T08:45:19.638Z,20.77
2018-07-06T08:47:48.588Z,20.74
2018-07-06T08:50:17.544Z,20.78
2018-07-06T08:52:48.093Z,20.77
2018-07-06T08:55:17.313Z,20.76
2018-07-06T08:57:47.185Z,20.76
2018-07-06T09:00:16.083Z,20.81
2018-07-06T09:02:44.766Z,20.86
2018-07-06T09:05:14.187Z,20.87
2018-07-06T09:07:43.007Z,20.83
2018-07-06T09:10:11.610Z,20.84
2018-07-06T09:12:40.772Z,20.82
2018-07-06T09:15:10.227Z,20.83
2018-07-06T09:17:38.788Z,20.83
2018-07-06T09:20:07.572Z,20.83
2018-07-06T09:22:36.170Z,20.81
2018-07-06T09:25:06.251Z,20.78
2018-07-06T09:27:35.256Z,20.79
2018-07-06T09:30:03.637Z,20.77
2018-07-06T09:32:32.418Z,20.79
2018-07-06T09:35:02.535Z,20.79
2018-07-06T09:37:31.055Z,20.80
2018-07-06T09:39:59.509Z,20.83
2018-07-06T09:42:28.312Z,20.80
2018-07-06T09:44:56.911Z,20.77
2018-07-06T09:47:26.057Z,20.78
2018-07-06T09:49:54.663Z,20.84
2018-07-06T09:52:24.177Z,20.88
2018-07-06T09:55:02.114Z,20.85
2018-07-06T09:57:30.973Z,20.89
2018-07-06T09:59:59.851Z,20.93
2018-07-06T10:02:33.307Z,20.93
2018-07-06T10:05:04.201Z,20.93
2018-07-06T10:07:34.758Z,20.96
2018-07-06T10:10:04.954Z,20.96
2018-07-06T10:12:34.787Z,21.00
2018-07-06T10:15:11.737Z,21.07
2018-07-06T10:17:40.147Z,21.11
2018-07-06T10:20:08.644Z,21.19
2018-07-06T10:22:37.086Z,21.26
2018-07-06T10:25:05.766Z,21.30
2018-07-06T10:27:43.245Z,21.29
2018-07-06T10:30:21.777Z,21.31
2018-07-06T10:32:50.220Z,21.29
2018-07-06T10:35:18.809Z,21.31
2018-07-06T10:37:47.259Z,21.30
2018-07-06T10:40:15.744Z,21.34
2018-07-06T10:42:45.127Z,21.42
2018-07-06T10:45:13.541Z,21.42
2018-07-06T10:47:42.199Z,21.39
2018-07-06T10:50:10.712Z,21.38
2018-07-06T10:52:39.339Z,21.35
2018-07-06T10:55:08.089Z,21.34
2018-07-06T10:57:36.476Z,21.31
2018-07-06T11:00:05.064Z,21.28
2018-07-06T11:02:33.465Z,21.25
2018-07-06T11:05:01.971Z,21.21
2018-07-06T11:07:30.308Z,21.20
2018-07-06T11:09:59.661Z,21.33
2018-07-06T11:12:28.316Z,21.46
2018-07-06T11:14:58.569Z,21.49
2018-07-06T11:17:27.525Z,21.52
2018-07-06T11:19:56.725Z,21.60
2018-07-06T11:22:26.817Z,21.73
2018-07-06T11:24:55.647Z,21.93
2018-07-06T11:27:25.928Z,22.09
2018-07-06T11:29:54.399Z,22.23
2018-07-06T11:32:22.940Z,22.29
2018-07-06T11:34:52.009Z,22.33
2018-07-06T11:37:20.645Z,22.28
2018-07-06T11:39:50.073Z,22.36
2018-07-06T11:42:18.733Z,22.43
2018-07-06T11:44:47.161Z,22.44
2018-07-06T11:47:15.929Z,22.40
2018-07-06T11:49:44.391Z,22.46
2018-07-06T11:52:12.913Z,22.55
2018-07-06T11:54:41.362Z,22.61
2018-07-06T11:57:09.843Z,22.71
2018-07-06T11:59:38.511Z,22.84
2018-07-06T12:02:07.029Z,23.03
2018-07-06T12:04:35.572Z,23.08
2018-07-06T12:07:04.822Z,23.09
2018-07-06T12:09:33.491Z,23.13
2018-07-06T12:12:02.725Z,23.11
2018-07-06T12:14:31.230Z,23.07
2018-07-06T12:17:04.867Z,23.12
2018-07-06T12:19:33.397Z,23.14
2018-07-06T12:22:01.925Z,23.15
2018-07-06T12:24:30.429Z,23.26
2018-07-06T12:26:58.995Z,23.30
2018-07-06T12:29:28.493Z,23.35
2018-07-06T12:31:56.910Z,23.38
2018-07-06T12:34:25.517Z,23.45
2018-07-06T12:36:54.105Z,23.46
2018-07-06T12:39:22.530Z,23.58
2018-07-06T12:41:51.429Z,23.87
2018-07-06T12:44:19.841Z,24.17
2018-07-06T12:46:48.294Z,24.36
2018-07-06T12:49:16.876Z,24.58
2018-07-06T12:51:45.336Z,24.81
2018-07-06T12:54:13.967Z,25.08
2018-07-06T12:56:42.889Z,25.33
2018-07-06T12:59:11.350Z,25.45
2018-07-06T13:01:39.905Z,25.61
2018-07-06T13:04:08.391Z,25.62
2018-07-06T13:06:36.889Z,25.58
2018-07-06T13:09:05.747Z,25.40
2018-07-06T13:11:34.451Z,25.06
2018-07-06T13:14:02.905Z,24.79
2018-07-06T13:16:31.217Z,24.53
2018-07-06T13:19:00.273Z,24.45
2018-07-06T13:21:28.663Z,24.41
2018-07-06T13:23:57.299Z,24.68
2018-07-06T13:26:26.249Z,25.03
2018-07-06T13:28:56.514Z,25.19
2018-07-06T13:31:25.078Z,25.17
2018-07-06T13:33:53.556Z,25.10
2018-07-06T13:36:21.993Z,25.12
2018-07-06T13:38:50.472Z,25.01
2018-07-06T13:41:19.083Z,24.83
2018-07-06T13:43:47.701Z,24.66
2018-07-06T13:46:16.170Z,24.35
2018-07-06T13:48:44.645Z,24.23
2018-07-06T13:51:13.143Z,24.14
2018-07-06T13:53:41.923Z,24.05
2018-07-06T13:56:11.179Z,24.00
2018-07-06T13:58:39.604Z,24.17
2018-07-06T14:01:08.657Z,24.42
2018-07-06T14:03:37.482Z,24.57
2018-07-06T14:06:06.179Z,24.73
2018-07-06T14:08:35.242Z,24.84
2018-07-06T14:11:03.803Z,24.90
2018-07-06T14:13:32.470Z,24.88
2018-07-06T14:16:01.530Z,24.81
2018-07-06T14:18:30.271Z,24.63
2018-07-06T14:20:58.871Z,24.49
2018-07-06T14:23:27.473Z,24.41
2018-07-06T14:25:56.031Z,24.35
2018-07-06T14:28:24.510Z,24.37
2018-07-06T14:30:53.066Z,24.44
2018-07-06T14:33:22.096Z,24.43
2018-07-06T14:35:50.810Z,24.42
2018-07-06T14:38:19.282Z,24.57
2018-07-06T14:40:47.731Z,24.76
2018-07-06T14:43:19.480Z,24.83
2018-07-06T14:45:48.381Z,24.80
2018-07-06T14:48:16.809Z,24.69
2018-07-06T14:50:45.296Z,24.63
2018-07-06T14:53:14.067Z,24.52
2018-07-06T14:55:42.713Z,24.48
2018-07-06T14:58:11.848Z,24.44
2018-07-06T15:00:40.351Z,24.49
2018-07-06T15:03:10.539Z,24.60
2018-07-06T15:05:41.520Z,24.61
2018-07-06T15:08:10.193Z,24.66
2018-07-06T15:10:38.711Z,24.61
2018-07-06T15:13:07.379Z,24.59
2018-07-06T15:17:05.231Z,24.54
2018-07-06T15:19:33.875Z,24.55
2018-07-06T15:22:02.525Z,24.54
2018-07-06T15:24:31.073Z,24.58
2018-07-06T15:27:00.023Z,24.59
2018-07-06T15:29:28.865Z,24.59
2018-07-06T15:31:57.276Z,24.55
2018-07-06T15:34:25.818Z,24.48
2018-07-06T15:36:54.460Z,24.45
2018-07-06T15:39:23.640Z,24.39
2018-07-06T15:41:52.336Z,24.39
2018-07-06T15:44:20.905Z,24.43
2018-07-06T15:46:49.948Z,24.44
2018-07-06T15:49:18.680Z,24.45
2018-07-06T15:51:47.193Z,24.40
2018-07-06T15:54:15.971Z,24.38
2018-07-06T15:56:44.605Z,24.46
2018-07-06T15:59:13.145Z,24.56
2018-07-06T16:01:41.861Z,24.60
2018-07-06T16:04:10.512Z,24.60
2018-07-06T16:06:39.129Z,24.59
2018-07-06T16:09:07.770Z,24.56
2018-07-06T16:11:36.315Z,24.57
2018-07-06T16:14:04.907Z,24.57
2018-07-06T16:16:33.483Z,24.58
2018-07-06T16:19:02.039Z,24.59
2018-07-06T16:21:30.664Z,24.56
2018-07-06T16:23:59.276Z,24.58
2018-07-06T16:26:28.096Z,24.54
2018-07-06T16:28:57.130Z,24.50
2018-07-06T16:31:25.710Z,24.52
2018-07-06T16:33:54.556Z,24.51
2018-07-06T16:36:23.237Z,24.55
2018-07-06T16:38:51.866Z,24.53
2018-07-06T16:41:21.930Z,24.45
2018-07-06T16:43:50.409Z,24.44
2018-07-06T16:46:18.970Z,24.41
2018-07-06T16:48:48.612Z,24.40
2018-07-06T16:51:17.328Z,24.35
2018-07-06T16:53:45.905Z,24.36
2018-07-06T16:56:14.644Z,24.32
2018-07-06T16:58:44.638Z,24.27
2018-07-06T17:01:13.317Z,24.21
2018-07-06T17:03:42.930Z,24.18
2018-07-06T17:06:11.879Z,24.17
2018-07-06T17:08:40.739Z,24.17
2018-07-06T17:11:10.637Z,24.16
2018-07-06T17:13:39.628Z,24.14
2018-07-06T17:16:08.883Z,24.09
2018-07-06T17:18:37.634Z,24.05
2018-07-06T17:21:06.783Z,24.02
2018-07-06T17:23:36.268Z,23.99
2018-07-06T17:26:27.479Z,23.99
2018-07-06T17:28:56.258Z,23.93
2018-07-06T17:31:26.193Z,23.90
2018-07-06T17:33:57.377Z,23.89
2018-07-06T17:36:27.927Z,23.84
2018-07-06T17:38:57.271Z,23.79
2018-07-06T17:41:26.155Z,23.76
2018-07-06T17:43:56.964Z,23.73
2018-07-06T17:46:26.087Z,23.71
2018-07-06T17:48:55.394Z,23.61
2018-07-06T17:51:24.541Z,23.60
2018-07-06T17:53:59.135Z,23.58
2018-07-06T17:56:33.171Z,23.56
2018-07-06T17:59:20.838Z,23.52
2018-07-06T18:31:43.712Z,23.11
2018-07-06T18:34:13.658Z,23.06
2018-07-06T18:36:53.206Z,23.08
2018-07-06T18:39:23.160Z,23.11
2018-07-06T18:41:53.720Z,23.07
2018-07-06T18:44:23.496Z,23.03
2018-07-06T18:49:36.574Z,22.98
2018-07-06T18:52:16.854Z,22.97
2018-07-06T18:54:47.753Z,22.97
2018-07-06T18:57:22.290Z,22.96
2018-07-06T18:59:52.486Z,22.92
2018-07-06T19:02:28.283Z,22.89
2018-07-06T19:04:59.158Z,22.86
2018-07-06T19:07:30.764Z,22.86
2018-07-06T19:10:01.321Z,22.84
2018-07-06T19:12:31.884Z,22.79
2018-07-06T19:15:01.093Z,22.75
2018-07-06T19:17:30.110Z,22.68
2018-07-06T19:19:58.932Z,22.61
2018-07-06T19:22:28.038Z,22.60
2018-07-06T19:24:56.836Z,22.56
2018-07-06T19:27:27.079Z,22.54
2018-07-06T19:29:56.153Z,22.55
2018-07-06T19:32:25.006Z,22.54
2018-07-06T19:34:54.343Z,22.49
2018-07-06T19:37:23.434Z,22.54
2018-07-06T19:39:53.414Z,22.50
2018-07-06T19:42:23.878Z,22.52
2018-07-06T19:44:52.924Z,22.50
2018-07-06T19:47:22.123Z,22.48
2018-07-06T19:49:51.081Z,22.46
2018-07-06T19:52:20.270Z,22.47
2018-07-06T19:54:50.713Z,22.44
2018-07-06T19:57:33.389Z,22.39
2018-07-06T20:00:02.988Z,22.39
2018-07-06T20:02:32.214Z,22.34
2018-07-06T20:05:02.142Z,22.33
2018-07-06T20:07:32.733Z,22.31
2018-07-06T20:10:02.508Z,22.31
2018-07-06T20:12:31.558Z,22.23
2018-07-06T20:15:02.307Z,22.20
2018-07-06T20:17:33.864Z,22.16
2018-07-06T20:20:03.333Z,22.15
2018-07-06T20:22:32.433Z,22.07
2018-07-06T20:25:05.644Z,22.01
2018-07-06T20:27:34.658Z,22.01
2018-07-06T20:30:03.719Z,21.98
2018-07-06T20:32:34.370Z,21.97
2018-07-06T20:35:04.903Z,21.94
2018-07-06T20:37:34.888Z,21.90
2018-07-06T20:40:19.072Z,21.89
2018-07-06T20:45:51.503Z,21.77
2018-07-06T20:48:21.212Z,21.78
2018-07-06T20:50:51.863Z,21.73
2018-07-06T20:53:21.443Z,21.74
2018-07-06T20:56:03.105Z,21.74
2018-07-06T20:58:40.927Z,21.76
2018-07-06T21:01:10.839Z,21.72
2018-07-06T21:03:40.905Z,21.69
2018-07-06T21:06:18.095Z,21.67
2018-07-06T21:08:48.017Z,21.67
2018-07-06T21:11:22.132Z,21.64
2018-07-06T21:13:51.847Z,21.64
2018-07-06T21:16:22.160Z,21.63
2018-07-06T21:18:53.560Z,21.58
2018-07-06T21:21:24.671Z,21.54
2018-07-06T21:23:54.938Z,21.51
2018-07-06T21:26:37.715Z,21.48
2018-07-06T21:29:06.740Z,21.50
2018-07-06T21:31:46.455Z,21.46
2018-07-06T21:34:15.748Z,21.40
2018-07-06T21:36:47.056Z,21.35
2018-07-06T21:39:16.044Z,21.30
2018-07-06T21:41:50.193Z,21.29
2018-07-06T21:44:19.947Z,21.27
2018-07-06T21:46:50.484Z,21.22
2018-07-06T21:49:20.494Z,21.19
2018-07-06T21:51:49.734Z,21.12
2018-07-06T21:54:18.629Z,21.15
2018-07-06T21:56:49.844Z,21.13
2018-07-06T21:59:21.154Z,21.10
2018-07-06T22:01:50.627Z,21.08
2018-07-06T22:04:20.623Z,21.03
2018-07-06T22:07:12.635Z,21.00
2018-07-06T22:09:45.017Z,20.93
2018-07-06T22:12:15.420Z,20.93
2018-07-06T22:14:48.042Z,20.85
2018-07-06T22:17:22.051Z,20.83
2018-07-06T22:19:51.522Z,20.83
2018-07-06T22:22:22.822Z,20.82
2018-07-06T22:24:53.008Z,20.82
2018-07-06T22:27:44.134Z,20.85
2018-07-06T22:30:13.450Z,20.85
2018-07-06T22:32:46.926Z,20.84
2018-07-06T22:35:22.155Z,20.78
2018-07-06T22:37:51.180Z,20.69
2018-07-06T22:40:20.823Z,20.61
2018-07-06T22:42:49.815Z,20.55
2018-07-06T22:45:18.318Z,20.51
2018-07-06T22:47:47.084Z,20.41
2018-07-06T22:50:15.606Z,20.38
2018-07-06T22:52:44.212Z,20.39
2018-07-06T22:55:13.283Z,20.38
2018-07-06T22:57:41.976Z,20.30
2018-07-06T23:00:10.822Z,20.26
2018-07-06T23:02:41.208Z,20.23
2018-07-06T23:05:12.997Z,20.19
2018-07-06T23:07:41.654Z,20.19
2018-07-06T23:10:10.166Z,20.12
2018-07-06T23:12:39.596Z,20.08
2018-07-06T23:15:08.734Z,20.03
2018-07-06T23:17:37.580Z,19.93
2018-07-06T23:20:09.058Z,19.85
2018-07-06T23:23:11.582Z,19.83
2018-07-06T23:25:42.164Z,19.78
2018-07-06T23:28:11.002Z,19.76
2018-07-06T23:30:39.536Z,19.65
2018-07-06T23:33:08.728Z,19.65
2018-07-06T23:35:37.440Z,19.63
2018-07-06T23:38:06.036Z,19.67
2018-07-06T23:40:34.434Z,19.76
2018-07-06T23:43:02.946Z,19.84
2018-07-06T23:45:31.742Z,19.71
2018-07-06T23:48:00.455Z,19.67
2018-07-06T23:50:29.324Z,19.58
2018-07-06T23:52:58.098Z,19.42
2018-07-06T23:55:26.720Z,19.43
2018-07-06T23:57:55.284Z,19.36
